Date,TemperatureHighF,TemperatureAvgF,TemperatureLowF,DewpointHighF,DewpointAvgF,DewpointLowF,HumidityHigh,HumidityAvg,HumidityLow,PressureMaxIn,PressureMinIn,WindSpeedMaxMPH,WindSpeedAvgMPH,GustSpeedMaxMPH,PrecipitationSumIn
2013-2-21,27.1,25.6,25.5,24.1,18.6,-99.9,94,83,82,30.26,30.01,25,-26,27,0.00
2013-2-22,32.7,27.4,24.4,28.8,24.6,21.4,94,89,84,30.01,29.82,21,5,22,0.00
2013-2-23,27.5,23.9,19.2,24.1,18.5,14.4,89,80,67,30.01,29.92,16,4,16,0.00
2013-2-24,35.8,22.6,6.6,22.1,15.7,3.6,92,76,53,30.20,30.01,7,1,7,0.05
2013-2-25,40.8,27.8,12.4,28.2,21.2,10.0,94,77,55,30.22,30.01,12,2,12,0.02
2013-2-26,34.2,32.9,30.6,31.3,28.6,25.7,96,84,71,30.01,29.60,24,8,24,0.00
2013-2-27,34.2,31.4,28.8,29.8,28.6,26.2,95,89,83,29.79,29.59,16,5,18,0.06
2013-2-28,35.2,31.9,24.8,30.6,27.0,18.5,92,82,71,30.14,29.78,17,5,19,0.01
2013-3-1,25.2,23.9,21.9,20.3,18.7,16.3,84,80,75,30.28,30.12,22,5,22,0.00
2013-3-2,25.9,18.1,5.2,16.9,10.9,2.1,90,74,58,30.29,30.22,14,3,14,0.00
2013-3-3,31.1,16.0,-0.8,13.6,6.5,-99.9,89,69,43,30.23,30.15,7,-3,8,0.00
2013-3-4,31.6,24.1,11.8,25.5,18.4,7.0,86,79,64,30.19,30.04,17,4,18,0.00
2013-3-5,31.6,29.1,25.0,30.2,26.9,23.4,95,91,79,30.09,29.86,13,4,14,0.00
2013-3-6,33.4,29.1,25.3,27.0,24.8,22.3,93,84,75,30.36,30.09,12,2,12,0.04
2013-3-7,35.8,28.0,14.2,24.3,21.5,12.0,94,77,61,30.47,30.34,6,1,6,0.04
2013-3-8,38.7,24.7,9.1,27.5,19.5,6.6,94,81,62,30.53,30.34,12,1,14,0.00
2013-3-9,40.5,35.8,27.5,35.6,30.3,22.1,91,80,72,30.34,29.83,15,2,15,0.11
2013-3-10,43.2,40.7,38.7,42.3,39.6,35.1,98,96,84,29.85,29.61,11,1,11,0.83
2013-3-11,39.6,34.5,30.9,39.0,33.3,28.0,98,95,89,29.82,29.58,16,2,16,0.12
2013-3-12,34.3,29.1,24.3,30.0,24.3,18.7,93,82,69,30.06,29.82,23,6,23,0.00
2013-3-13,32.2,25.8,20.1,20.7,14.1,6.1,85,63,35,30.37,30.06,15,3,17,0.00
2013-3-14,34.0,26.5,15.8,29.3,21.6,12.7,96,82,64,30.37,30.12,10,1,11,0.01
2013-3-15,37.6,31.4,24.4,34.2,29.8,23.5,97,94,81,30.12,29.80,16,2,16,0.19
2013-3-16,33.1,29.6,25.3,29.8,25.3,20.5,95,84,70,30.17,29.78,17,3,17,0.00
2013-3-17,34.2,28.3,21.0,25.2,20.3,14.2,83,72,61,30.27,30.02,17,5,19,0.00
2013-3-18,34.2,28.8,19.2,31.5,25.0,13.3,93,85,75,30.02,29.65,27,6,28,0.08
2013-3-19,30.2,21.0,13.6,14.2,11.1,7.2,81,66,46,30.14,29.82,29,9,29,0.00
2013-3-20,21.9,17.6,12.0,11.8,6.6,-99.9,77,63,57,30.17,30.08,20,0,21,0.00
2013-3-21,29.7,19.5,10.0,14.7,9.7,3.6,86,66,50,30.13,30.07,12,2,12,0.00
2013-3-22,36.3,24.2,12.6,21.4,13.3,-99.9,88,68,42,30.13,30.06,7,-14,7,0.00
2013-3-23,39.0,30.6,21.0,26.8,21.4,16.0,90,70,43,30.18,30.08,11,2,11,0.00
2013-3-24,36.0,31.7,29.7,28.2,26.1,22.6,93,80,68,30.10,29.75,20,6,20,0.00
2013-3-25,34.9,30.7,26.8,27.3,24.2,20.8,84,77,69,30.14,29.80,20,4,20,0.00
2013-3-26,41.2,35.3,31.5,28.8,25.3,20.3,82,68,46,30.29,30.14,11,2,12,0.00
2013-3-27,41.9,35.1,25.3,27.5,24.0,20.7,84,65,44,30.36,30.29,8,1,8,0.00
2013-3-28,47.7,35.8,23.5,28.4,23.3,19.6,91,63,37,30.40,30.32,9,1,10,0.00
2013-3-29,52.3,41.0,27.9,30.9,26.5,21.6,93,60,30,30.36,30.26,11,1,11,0.00
2013-3-30,56.7,43.2,28.2,42.4,34.1,24.6,91,72,51,30.27,29.86,19,3,22,0.00
2013-3-31,53.8,43.1,34.0,43.0,34.8,20.8,95,74,46,29.93,29.74,24,5,25,0.00
2013-4-1,37.9,32.2,27.3,21.6,16.5,11.3,68,53,38,30.24,29.93,17,3,18,0.00
2013-4-2,41.4,31.8,22.8,19.4,15.7,9.3,79,54,30,30.36,30.24,20,2,21,0.00
2013-4-3,46.4,34.3,20.8,23.5,16.5,9.3,83,52,25,30.49,30.34,10,1,11,0.00
2013-4-4,57.6,42.1,25.2,37.0,26.6,17.2,88,57,33,30.34,30.00,15,3,16,0.00
2013-4-5,49.8,40.9,32.5,31.6,27.2,21.7,80,59,38,30.26,30.06,18,4,20,0.00
2013-4-6,65.1,49.4,34.9,50.0,35.3,22.8,90,60,37,30.16,29.59,27,6,27,0.20
2013-4-7,61.0,48.1,37.2,49.6,38.0,32.5,90,70,43,29.96,29.62,21,4,21,0.00
2013-4-8,61.5,49.8,37.2,53.2,45.1,32.2,97,84,70,29.98,29.52,20,4,22,0.80
2013-4-9,45.3,41.7,38.8,43.7,40.1,37.0,96,94,90,30.01,29.86,20,6,20,0.18
2013-4-10,39.9,38.0,34.5,38.1,36.6,32.9,96,94,92,30.04,29.85,21,7,23,1.17
2013-4-11,42.6,39.5,36.7,41.9,38.4,35.1,98,96,92,29.89,29.58,32,7,32,0.26
2013-4-12,42.4,37.9,34.7,39.2,34.4,29.8,95,87,76,29.87,29.58,18,5,23,0.03
2013-4-13,43.2,36.6,31.5,31.5,28.4,25.3,89,73,57,30.03,29.85,21,5,21,0.00
2013-4-14,62.6,46.0,35.1,49.1,36.9,27.7,83,71,55,30.03,29.62,26,6,26,0.01
2013-4-15,62.4,53.1,40.5,53.6,46.7,36.7,97,81,42,30.00,29.62,23,4,25,0.28
2013-4-16,55.9,44.8,34.0,38.8,35.0,31.6,93,70,45,30.31,29.97,14,3,16,0.00
2013-4-17,45.0,42.1,39.4,44.2,37.9,31.3,97,86,63,30.32,29.80,29,5,29,2.77
2013-4-18,62.1,49.1,37.9,59.2,47.2,32.0,98,93,76,29.84,29.40,27,5,29,1.76
2013-4-19,39.4,36.3,33.3,32.2,29.4,23.5,90,76,60,29.96,29.46,29,9,31,0.02
2013-4-20,45.9,36.2,27.0,28.0,21.2,11.1,81,57,30,30.44,29.96,14,2,14,0.00
2013-4-21,53.8,42.3,28.8,35.4,28.9,23.0,89,61,40,30.54,30.32,18,4,19,0.00
2013-4-22,66.9,53.4,38.5,42.1,37.0,32.2,80,56,34,30.33,30.04,16,3,16,0.00
2013-4-23,54.7,43.9,37.2,48.4,40.6,32.9,95,89,60,30.04,29.92,16,2,16,0.51
2013-4-24,51.8,42.5,34.9,33.1,28.5,23.2,84,60,33,30.11,29.97,17,3,17,0.00
2013-4-25,51.6,42.9,34.0,36.7,31.8,27.0,89,66,42,30.34,30.05,18,4,20,0.05
2013-4-26,66.7,51.8,31.5,47.1,38.7,27.9,94,63,44,30.34,30.22,27,4,27,0.00
2013-4-27,67.6,56.7,40.3,48.6,43.4,39.0,96,65,37,30.29,30.01,14,2,14,0.00
2013-4-28,68.7,58.4,50.7,52.5,48.4,42.3,92,70,54,30.01,29.81,9,1,10,0.00
2013-4-29,74.3,61.5,46.6,57.6,51.9,45.3,97,73,47,29.90,29.73,20,3,20,0.00
2013-4-30,86.0,72.2,59.9,60.8,54.9,47.8,88,59,28,29.91,29.73,29,5,29,0.01
2013-5-1,84.6,73.2,61.5,58.1,53.3,43.0,78,53,26,30.11,29.91,17,-12,17,0.04
2013-5-2,64.6,49.7,41.4,53.1,43.3,37.0,93,79,59,30.27,30.11,19,5,19,0.52
2013-5-3,50.0,44.2,39.0,48.2,42.5,36.9,96,94,91,30.20,29.98,21,4,21,0.31
2013-5-4,69.3,57.6,48.6,55.8,49.6,46.0,92,76,48,30.06,29.96,23,3,23,0.08
2013-5-5,73.4,59.9,45.5,52.7,46.5,42.6,96,65,34,30.06,29.98,19,2,19,0.00
2013-5-6,74.1,60.9,45.9,48.4,42.5,34.5,88,55,24,30.07,29.98,11,1,12,0.00
2013-5-7,81.7,65.3,49.5,49.5,42.1,32.4,85,49,21,30.06,29.97,8,1,8,0.01
2013-5-8,81.5,65.4,46.2,53.6,46.2,38.1,94,56,24,30.04,29.95,8,0,8,0.12
2013-5-9,68.7,59.0,47.1,59.9,54.2,45.7,95,84,64,29.96,29.84,20,1,20,0.30
2013-5-10,49.1,46.6,42.8,45.9,44.2,41.5,96,91,85,30.01,29.82,17,2,17,0.33
2013-5-11,56.8,47.3,37.8,48.9,36.6,24.8,98,70,33,30.08,29.85,21,3,22,0.00
2013-5-12,55.6,45.1,35.2,34.9,27.4,21.7,81,52,28,30.15,30.08,16,2,17,0.00
2013-5-13,65.7,50.4,29.8,45.7,30.9,21.7,95,54,21,30.20,29.97,18,1,18,0.00
2013-5-14,92.5,72.1,49.5,60.8,48.8,38.1,69,47,19,29.97,29.60,13,2,14,0.06
2013-5-15,81.7,73.7,62.1,59.0,49.0,38.5,66,43,23,29.84,29.60,17,2,17,0.05
2013-5-16,85.6,68.7,50.5,53.4,46.4,38.7,91,50,21,29.96,29.83,14,1,14,0.05
2013-5-17,70.9,62.8,56.7,52.9,46.8,38.7,67,56,47,30.04,29.95,15,3,15,0.02
2013-5-18,82.8,68.6,53.1,63.1,56.2,45.5,90,66,42,30.06,29.92,9,2,10,0.08
2013-5-19,88.2,72.9,57.0,65.5,60.7,55.2,95,69,43,29.94,29.71,28,2,33,0.14
2013-5-20,84.6,74.4,64.2,68.2,60.5,57.0,92,64,41,29.75,29.65,19,4,20,0.32
2013-5-21,79.0,69.1,60.3,65.1,60.1,55.9,93,75,49,29.68,29.63,23,3,23,0.01
2013-5-22,72.1,64.8,59.7,63.7,58.3,51.1,96,81,48,29.75,29.61,13,2,13,0.05
2013-5-23,61.3,52.7,40.5,56.1,47.1,35.8,96,82,59,30.32,29.74,20,3,20,0.08
2013-5-24,65.7,50.7,35.1,39.7,35.5,32.4,91,60,31,30.47,30.32,11,1,11,0.02
2013-5-25,57.4,51.3,45.1,41.7,37.0,31.3,79,59,43,30.41,30.31,14,2,15,0.01
2013-5-26,67.6,54.9,43.7,54.1,43.9,35.4,88,68,41,30.32,30.15,13,2,15,0.13
2013-5-27,57.4,55.0,50.5,56.1,53.3,46.8,97,94,86,30.16,29.87,15,4,15,0.01
2013-5-28,77.4,66.4,53.8,71.2,63.5,52.9,98,91,79,29.87,29.68,16,2,19,0.09
2013-5-29,85.3,72.8,62.6,68.4,64.7,60.4,96,77,52,29.93,29.76,13,2,14,0.03
2013-5-30,84.6,74.2,62.8,68.9,65.1,60.3,95,75,53,29.89,29.72,25,4,25,0.39
2013-5-31,75.0,68.3,62.1,66.7,63.5,60.3,95,85,65,29.81,29.68,20,3,20,0.25
2013-6-1,76.1,68.3,63.1,66.9,63.0,57.0,95,83,69,29.71,29.63,15,2,15,0.03
2013-6-2,64.0,56.5,47.1,58.1,49.5,43.3,94,78,61,30.04,29.71,17,1,17,0.00
2013-6-3,71.4,57.7,43.5,52.5,45.2,41.5,97,68,35,30.14,30.02,7,1,7,0.08
2013-6-4,72.3,60.6,47.1,49.1,45.3,39.6,94,61,33,30.18,30.06,18,2,18,0.08
2013-6-5,66.6,58.3,53.2,58.5,51.6,45.5,90,79,59,30.14,29.96,16,2,16,0.27
2013-6-6,63.9,57.1,53.1,57.7,52.7,48.9,94,86,72,29.97,29.89,12,2,12,0.39
2013-6-7,71.2,60.2,49.5,56.3,48.8,42.4,91,69,38,29.98,29.92,11,1,11,0.01
2013-6-8,76.3,62.5,44.2,52.3,46.0,41.0,95,59,31,30.01,29.93,10,1,10,0.02
2013-6-9,80.8,68.9,56.1,62.4,54.8,43.7,92,63,43,30.01,29.78,17,2,17,0.00
2013-6-10,80.1,70.6,58.8,64.2,61.6,57.7,97,75,55,29.85,29.75,10,1,11,0.01
2013-6-11,84.9,72.4,58.1,65.7,61.7,56.3,95,71,46,29.92,29.77,12,1,12,0.01
2013-6-12,86.4,72.3,64.8,72.5,65.5,62.1,93,80,59,29.91,29.59,16,2,16,0.32
2013-6-13,79.5,69.1,58.8,62.4,57.6,52.5,92,69,43,30.05,29.67,12,2,13,0.01
2013-6-14,79.0,66.2,52.2,59.7,53.5,49.5,92,65,43,30.15,29.99,12,2,13,0.00
2013-6-15,82.9,68.5,56.7,69.3,61.9,50.0,94,80,60,30.06,29.83,15,2,15,0.23
2013-6-16,84.9,75.2,63.0,68.2,60.7,52.3,87,64,34,29.92,29.86,16,2,17,0.02
2013-6-17,87.8,73.2,56.5,60.1,55.6,50.0,95,59,29,29.95,29.83,14,2,16,0.01
2013-6-18,73.6,63.8,53.1,58.8,52.8,46.0,84,68,49,30.09,29.93,14,2,15,0.00
2013-6-19,81.9,65.3,48.9,57.6,50.1,44.6,88,60,40,30.15,30.05,12,1,12,0.05
2013-6-20,89.4,72.9,51.6,63.5,56.5,46.0,86,59,36,30.15,30.03,12,1,12,0.08
2013-6-21,77.2,70.7,65.1,68.2,65.1,60.6,95,83,71,30.13,29.78,15,1,23,0.92
2013-6-22,80.2,71.8,64.2,74.8,68.2,62.8,97,89,77,30.11,29.91,19,2,19,1.77
2013-6-23,86.4,73.2,66.4,74.1,67.5,63.7,96,83,57,30.03,29.87,17,2,17,0.26
2013-6-24,81.7,70.8,65.7,72.9,66.7,64.2,97,88,66,30.06,29.83,14,2,15,0.21
2013-6-25,82.6,72.6,64.6,76.3,69.4,63.5,97,90,73,29.97,29.78,15,1,15,1.51
2013-6-26,81.5,71.3,65.5,72.5,68.1,64.0,97,90,71,29.80,29.71,13,1,13,2.44
2013-6-27,87.6,77.2,66.9,73.0,66.9,59.5,98,73,43,29.79,29.67,20,2,22,0.01
2013-6-28,79.3,71.7,65.5,65.7,61.5,58.3,93,71,50,29.72,29.60,18,2,18,0.05
2013-6-29,70.7,65.5,61.9,64.2,61.6,56.7,96,88,64,29.80,29.60,12,1,12,1.42
2013-6-30,78.6,68.0,60.4,63.7,55.3,47.7,85,65,41,30.01,29.80,13,2,13,0.02
2013-7-1,78.1,67.5,57.2,57.4,51.4,46.6,85,58,38,30.09,30.00,17,2,17,0.08
2013-7-2,75.0,64.5,55.8,56.5,52.3,41.5,92,67,35,30.10,30.05,13,2,13,0.00
2013-7-3,70.0,63.3,54.9,64.9,58.8,52.9,95,85,74,30.08,30.03,7,0,8,0.00
2013-7-4,82.8,70.1,54.3,65.1,60.0,53.4,98,73,44,30.10,30.01,11,1,11,0.03
2013-7-5,84.7,73.0,58.8,67.5,62.2,57.7,97,72,43,30.08,29.99,11,1,11,0.01
2013-7-6,85.8,73.8,58.1,68.4,62.7,57.0,97,72,43,30.05,29.95,9,1,9,0.01
2013-7-7,88.7,78.1,67.6,73.4,68.9,65.8,96,75,50,29.99,29.91,10,1,10,0.00
2013-7-8,87.3,78.4,70.5,76.3,72.3,68.4,94,82,69,29.97,29.90,19,2,25,0.06
2013-7-9,84.7,78.0,70.5,76.5,73.6,69.4,98,87,73,29.96,29.83,20,2,20,0.13
2013-7-10,81.7,75.6,64.6,75.0,65.7,57.2,97,73,48,30.00,29.83,10,1,11,0.01
2013-7-11,82.8,70.6,58.1,63.0,58.3,52.2,93,68,40,30.12,30.00,9,0,9,0.01
2013-7-12,84.9,69.5,53.1,60.4,54.2,38.1,96,64,30,30.16,30.07,5,0,6,0.04
2013-7-13,83.8,70.6,54.9,63.3,58.8,53.4,97,70,40,30.16,30.09,12,1,12,0.01
2013-7-14,88.0,75.6,62.8,70.3,65.9,59.9,94,74,51,30.21,30.14,10,1,10,0.01
2013-7-15,92.8,79.7,67.6,75.6,71.0,65.3,94,76,50,30.26,30.19,8,1,8,0.02
2013-7-16,91.2,81.0,70.0,76.1,73.1,68.7,97,79,56,30.28,30.22,12,1,12,0.01
2013-7-17,92.5,82.0,70.0,75.6,72.8,68.5,97,76,51,30.29,30.15,11,1,12,0.03
2013-7-18,91.9,82.8,70.5,76.1,72.6,69.3,97,74,50,30.17,29.91,12,2,15,0.00
2013-7-19,91.6,83.7,74.8,76.1,72.2,69.1,85,69,51,29.91,29.72,19,4,20,0.01
2013-7-20,87.1,75.6,64.8,70.3,64.4,59.9,93,71,44,29.94,29.79,10,1,10,0.03
2013-7-21,84.9,71.3,61.9,70.0,64.3,59.5,93,80,56,29.95,29.84,10,2,17,0.01
2013-7-22,86.2,74.4,61.3,71.4,65.5,59.9,97,76,51,29.89,29.72,31,1,31,0.01
2013-7-23,75.9,68.4,57.4,64.4,59.1,53.6,95,74,50,29.99,29.68,13,1,13,0.02
2013-7-24,74.1,63.5,52.9,57.4,54.0,50.5,96,74,46,30.08,29.98,12,1,12,0.01
2013-7-25,79.5,66.7,50.5,62.4,57.0,49.5,97,73,50,30.11,29.99,11,1,12,0.01
2013-7-26,72.7,65.5,59.0,68.2,62.3,57.2,97,90,72,29.99,29.86,13,1,13,1.57
2013-7-27,62.2,57.6,53.8,57.0,50.2,46.0,96,77,58,29.96,29.88,16,2,16,0.00
2013-7-28,68.4,59.0,54.1,54.1,50.6,47.8,92,75,55,30.04,29.88,14,2,14,0.00
2013-7-29,75.9,63.9,51.4,62.1,55.9,49.8,95,77,54,30.18,30.04,8,1,10,0.01
2013-7-30,72.1,62.8,53.1,64.2,59.8,52.0,97,90,67,30.18,30.08,9,1,10,0.11
2013-7-31,77.7,67.6,59.7,67.1,63.6,57.7,98,88,67,30.08,29.94,7,0,7,0.03
2013-8-1,79.3,67.8,56.8,61.7,58.0,52.9,98,74,43,30.00,29.92,12,0,17,0.00
2013-8-2,82.2,71.4,60.6,68.9,62.1,58.3,94,74,49,29.95,29.85,10,1,11,0.05
2013-8-3,78.6,69.2,58.5,60.6,55.7,48.6,86,65,39,30.12,29.95,9,1,9,0.00
2013-8-4,77.9,67.0,56.5,62.2,56.5,50.2,90,71,43,30.21,30.11,10,1,11,0.00
2013-8-5,72.0,63.0,53.6,64.9,59.5,52.2,96,89,65,30.13,29.87,14,1,14,0.04
2013-8-6,83.1,72.1,64.2,73.2,68.7,63.1,97,90,69,29.90,29.81,7,1,7,0.01
2013-8-7,84.6,75.2,63.1,72.1,68.0,60.8,97,80,51,29.95,29.77,11,1,11,0.00
2013-8-8,77.2,68.0,60.6,64.0,60.5,56.5,97,78,54,30.04,29.95,13,1,13,0.00
2013-8-9,80.4,69.3,55.0,66.6,60.8,53.4,96,76,55,30.05,29.97,12,1,12,0.00
2013-8-10,79.7,68.1,57.4,62.6,57.9,54.3,94,72,45,30.14,30.05,7,0,7,0.00
2013-8-11,77.7,65.9,52.9,68.4,60.6,51.6,97,84,59,30.14,30.02,8,0,11,0.00
2013-8-12,81.9,72.2,63.3,70.0,65.1,58.5,96,80,60,30.03,29.88,8,1,8,0.01
2013-8-13,71.4,62.5,53.6,58.8,51.6,46.0,93,69,46,30.16,29.94,13,1,13,0.00
2013-8-14,74.3,60.7,46.9,57.4,51.5,45.5,96,75,43,30.24,30.14,9,0,9,0.01
2013-8-15,75.4,62.2,50.0,60.6,54.3,48.7,96,78,48,30.18,30.10,7,0,7,0.00
2013-8-16,81.1,65.8,50.4,60.4,55.2,49.3,97,72,41,30.20,30.14,9,0,9,0.00
2013-8-17,81.0,66.2,50.7,62.4,55.5,49.6,97,72,41,30.25,30.16,8,1,8,0.01
2013-8-18,82.6,66.8,50.5,64.2,56.7,49.1,96,74,44,30.22,30.10,9,0,9,0.00
2013-8-19,82.4,68.3,53.1,65.8,60.0,52.0,97,77,51,30.13,30.02,9,1,9,0.00
2013-8-20,84.6,71.7,57.2,68.7,63.5,56.1,97,78,53,30.11,30.01,12,1,12,0.00
2013-8-21,87.4,76.0,62.4,70.3,66.4,60.8,96,74,48,30.06,29.93,14,2,16,0.00
2013-8-22,75.6,69.8,61.9,69.4,66.8,60.8,96,90,76,30.14,29.98,27,0,27,0.08
2013-8-23,80.1,68.0,55.8,63.7,57.4,53.2,98,73,42,30.19,30.11,14,2,14,0.00
2013-8-24,83.7,69.7,54.0,67.5,61.6,52.5,97,78,55,30.26,30.16,12,1,12,0.01
2013-8-25,88.3,75.8,62.2,71.1,65.5,57.9,91,72,48,30.23,30.11,13,2,14,0.00
2013-8-26,89.8,77.3,64.8,74.3,68.7,62.6,94,77,50,30.14,29.97,14,2,14,0.01
2013-8-27,93.2,81.2,68.9,75.0,71.5,67.6,96,75,49,29.98,29.81,17,2,17,0.02
2013-8-28,85.1,77.7,66.6,73.2,70.3,64.2,93,78,64,30.03,29.81,8,1,8,0.01
2013-8-29,87.8,73.7,65.1,71.6,67.4,63.3,97,83,54,30.09,29.96,10,1,10,0.01
2013-8-30,93.9,75.5,64.2,76.6,69.1,63.1,97,83,47,29.98,29.71,27,2,27,0.48
2013-8-31,76.5,70.6,64.9,70.5,67.3,63.9,96,90,80,29.87,29.78,9,1,10,0.00
2013-9-1,85.3,71.9,59.2,74.3,66.0,58.3,98,83,61,29.83,29.71,9,1,9,0.01
2013-9-2,73.9,66.4,58.6,62.6,59.1,54.3,93,78,54,29.99,29.82,9,1,9,0.02
2013-10-6,-200.0,0.0,200.0,-99.9,-99.9,-99.9,0,0,100,0.00,40.00,0,-999,0,0.00
2013-10-30,-200.0,0.0,200.0,-99.9,-99.9,-99.9,0,0,100,0.00,40.00,0,-999,0,0.00